sensor_id;sensor_type;location;lat;lon;timestamp;pressure;altitude;pressure_sealevel;temperature;humidity
54453;BME280;40363;52.270;10.546;2023-05-20T00:01:10;77266.31;;;-147.06;65.47
54453;BME280;40363;52.270;10.546;2023-05-20T00:03:36;77274.53;;;-147.06;65.83
54453;BME280;40363;52.270;10.546;2023-05-20T00:06:03;77270.41;;;-147.06;66.08
54453;BME280;40363;52.270;10.546;2023-05-20T00:08:29;77262.19;;;-147.06;66.49
54453;BME280;40363;52.270;10.546;2023-05-20T00:10:56;77266.31;;;-147.06;66.33
54453;BME280;40363;52.270;10.546;2023-05-20T00:13:24;77266.31;;;-147.06;66.52
54453;BME280;40363;52.270;10.546;2023-05-20T00:15:51;77270.41;;;-147.06;67.16
54453;BME280;40363;52.270;10.546;2023-05-20T00:18:18;77282.75;;;-147.06;66.37
54453;BME280;40363;52.270;10.546;2023-05-20T00:20:44;77288.91;;;-147.06;66.54
54453;BME280;40363;52.270;10.546;2023-05-20T00:23:11;77290.97;;;-147.06;66.96
54453;BME280;40363;52.270;10.546;2023-05-20T00:25:38;77295.06;;;-147.06;66.99
54453;BME280;40363;52.270;10.546;2023-05-20T00:28:05;77301.25;;;-147.06;67.27
54453;BME280;40363;52.270;10.546;2023-05-20T00:30:33;77293.03;;;-147.06;67.55
54453;BME280;40363;52.270;10.546;2023-05-20T00:32:59;77301.25;;;-147.06;67.88
54453;BME280;40363;52.270;10.546;2023-05-20T00:35:26;77290.97;;;-147.06;67.99
54453;BME280;40363;52.270;10.546;2023-05-20T00:37:52;77301.25;;;-147.06;68.18
54453;BME280;40363;52.270;10.546;2023-05-20T00:40:19;77315.63;;;-147.06;68.74
54453;BME280;40363;52.270;10.546;2023-05-20T00:42:46;77315.63;;;-147.06;68.77
54453;BME280;40363;52.270;10.546;2023-05-20T00:45:13;77327.97;;;-147.06;69.30
54453;BME280;40363;52.270;10.546;2023-05-20T00:47:41;77321.81;;;-147.06;69.21
54453;BME280;40363;52.270;10.546;2023-05-20T00:50:08;77307.41;;;-147.06;68.79
54453;BME280;40363;52.270;10.546;2023-05-20T00:52:36;77321.81;;;-147.06;69.56
54453;BME280;40363;52.270;10.546;2023-05-20T00:55:03;77303.31;;;-147.06;69.28
54453;BME280;40363;52.270;10.546;2023-05-20T00:57:30;77305.34;;;-147.06;69.54
54453;BME280;40363;52.270;10.546;2023-05-20T00:59:57;77317.69;;;-147.06;69.92
54453;BME280;40363;52.270;10.546;2023-05-20T01:02:24;77313.59;;;-147.06;69.25
54453;BME280;40363;52.270;10.546;2023-05-20T01:04:52;77325.91;;;-147.06;69.77
54453;BME280;40363;52.270;10.546;2023-05-20T01:07:20;77325.91;;;-147.06;70.13
54453;BME280;40363;52.270;10.546;2023-05-20T01:09:47;77321.81;;;-147.06;70.16
54453;BME280;40363;52.270;10.546;2023-05-20T01:12:16;77315.63;;;-147.06;69.96
54453;BME280;40363;52.270;10.546;2023-05-20T01:14:48;77303.31;;;-147.06;69.90
54453;BME280;40363;52.270;10.546;2023-05-20T01:17:15;77311.53;;;-147.06;70.03
54453;BME280;40363;52.270;10.546;2023-05-20T01:19:45;77313.59;;;-147.06;69.94
54453;BME280;40363;52.270;10.546;2023-05-20T01:22:14;77299.19;;;-147.06;69.92
54453;BME280;40363;52.270;10.546;2023-05-20T01:24:44;77307.41;;;-147.06;70.08
54453;BME280;40363;52.270;10.546;2023-05-20T01:27:12;77301.25;;;-147.06;70.18
54453;BME280;40363;52.270;10.546;2023-05-20T01:29:40;77303.31;;;-147.06;70.10
54453;BME280;40363;52.270;10.546;2023-05-20T01:32:10;77303.31;;;-147.06;70.41
54453;BME280;40363;52.270;10.546;2023-05-20T01:34:39;77303.31;;;-147.06;70.23
54453;BME280;40363;52.270;10.546;2023-05-20T01:37:07;77309.47;;;-147.06;70.55
54453;BME280;40363;52.270;10.546;2023-05-20T01:39:35;77303.31;;;-147.06;70.32
54453;BME280;40363;52.270;10.546;2023-05-20T01:42:04;77307.41;;;-147.06;70.38
54453;BME280;40363;52.270;10.546;2023-05-20T01:44:32;77315.63;;;-147.06;70.41
54453;BME280;40363;52.270;10.546;2023-05-20T01:46:59;77313.59;;;-147.06;70.73
54453;BME280;40363;52.270;10.546;2023-05-20T01:49:25;77309.47;;;-147.06;71.13
54453;BME280;40363;52.270;10.546;2023-05-20T01:51:52;77295.06;;;-147.06;71.00
54453;BME280;40363;52.270;10.546;2023-05-20T01:54:19;77301.25;;;-147.06;70.89
54453;BME280;40363;52.270;10.546;2023-05-20T01:56:46;77295.06;;;-147.06;70.66
54453;BME280;40363;52.270;10.546;2023-05-20T01:59:14;77297.13;;;-147.06;71.02
54453;BME280;40363;52.270;10.546;2023-05-20T02:01:40;77293.03;;;-147.06;71.57
54453;BME280;40363;52.270;10.546;2023-05-20T02:04:07;77299.19;;;-147.06;71.82
54453;BME280;40363;52.270;10.546;2023-05-20T02:06:34;77290.97;;;-147.06;71.93
54453;BME280;40363;52.270;10.546;2023-05-20T02:09:00;77286.84;;;-147.06;71.44
54453;BME280;40363;52.270;10.546;2023-05-20T02:11:27;77288.91;;;-147.06;71.59
54453;BME280;40363;52.270;10.546;2023-05-20T02:13:53;77278.63;;;-147.06;71.75
54453;BME280;40363;52.270;10.546;2023-05-20T02:16:21;77270.41;;;-147.06;70.98
54453;BME280;40363;52.270;10.546;2023-05-20T02:18:48;77280.69;;;-147.06;71.47
54453;BME280;40363;52.270;10.546;2023-05-20T02:21:15;77272.47;;;-147.06;70.96
54453;BME280;40363;52.270;10.546;2023-05-20T02:23:42;77278.63;;;-147.06;71.62
54453;BME280;40363;52.270;10.546;2023-05-20T02:26:08;77280.69;;;-147.06;71.63
54453;BME280;40363;52.270;10.546;2023-05-20T02:28:35;77274.53;;;-147.06;71.51
54453;BME280;40363;52.270;10.546;2023-05-20T02:31:04;77270.41;;;-147.06;71.60
54453;BME280;40363;52.270;10.546;2023-05-20T02:33:32;77270.41;;;-147.06;71.61
54453;BME280;40363;52.270;10.546;2023-05-20T02:35:59;77272.47;;;-147.06;71.83
54453;BME280;40363;52.270;10.546;2023-05-20T02:38:26;77270.41;;;-147.06;71.60
54453;BME280;40363;52.270;10.546;2023-05-20T02:40:53;77270.41;;;-147.06;71.65
54453;BME280;40363;52.270;10.546;2023-05-20T02:43:21;77262.19;;;-147.06;71.93
54453;BME280;40363;52.270;10.546;2023-05-20T02:45:47;77274.53;;;-147.06;72.08
54453;BME280;40363;52.270;10.546;2023-05-20T02:48:14;77270.41;;;-147.06;72.18
54453;BME280;40363;52.270;10.546;2023-05-20T02:50:41;77268.34;;;-147.06;72.11
54453;BME280;40363;52.270;10.546;2023-05-20T02:53:08;77270.41;;;-147.06;71.85
54453;BME280;40363;52.270;10.546;2023-05-20T02:55:35;77270.41;;;-147.06;72.06
54453;BME280;40363;52.270;10.546;2023-05-20T02:58:02;77274.53;;;-147.06;72.27
54453;BME280;40363;52.270;10.546;2023-05-20T03:00:28;77276.56;;;-147.06;72.34
54453;BME280;40363;52.270;10.546;2023-05-20T03:02:55;77276.56;;;-147.06;72.49
54453;BME280;40363;52.270;10.546;2023-05-20T03:05:23;77280.69;;;-147.06;72.87
54453;BME280;40363;52.270;10.546;2023-05-20T03:07:52;77282.75;;;-147.06;72.98
54453;BME280;40363;52.270;10.546;2023-05-20T03:10:19;77282.75;;;-147.06;72.35
54453;BME280;40363;52.270;10.546;2023-05-20T03:12:46;77293.03;;;-147.06;72.83
54453;BME280;40363;52.270;10.546;2023-05-20T03:15:13;77297.13;;;-147.06;73.11
54453;BME280;40363;52.270;10.546;2023-05-20T03:17:39;77290.97;;;-147.06;73.37
54453;BME280;40363;52.270;10.546;2023-05-20T03:20:07;77295.06;;;-147.06;73.80
54453;BME280;40363;52.270;10.546;2023-05-20T03:22:34;77290.97;;;-147.06;73.19
54453;BME280;40363;52.270;10.546;2023-05-20T03:25:02;77295.06;;;-147.06;73.64
54453;BME280;40363;52.270;10.546;2023-05-20T03:27:30;77299.19;;;-147.06;73.19
54453;BME280;40363;52.270;10.546;2023-05-20T03:29:56;77303.31;;;-147.06;73.81
54453;BME280;40363;52.270;10.546;2023-05-20T03:32:23;77307.41;;;-147.06;73.88
54453;BME280;40363;52.270;10.546;2023-05-20T03:34:49;77311.53;;;-147.06;73.86
54453;BME280;40363;52.270;10.546;2023-05-20T03:37:16;77313.59;;;-147.06;73.80
54453;BME280;40363;52.270;10.546;2023-05-20T03:39:43;77315.63;;;-147.06;73.83
54453;BME280;40363;52.270;10.546;2023-05-20T03:42:11;77299.19;;;-147.06;73.53
54453;BME280;40363;52.270;10.546;2023-05-20T03:44:37;77303.31;;;-147.06;73.02
54453;BME280;40363;52.270;10.546;2023-05-20T03:47:04;77307.41;;;-147.06;73.50
54453;BME280;40363;52.270;10.546;2023-05-20T03:49:31;77307.41;;;-147.06;72.88
54453;BME280;40363;52.270;10.546;2023-05-20T03:51:57;77321.81;;;-147.06;73.15
54453;BME280;40363;52.270;10.546;2023-05-20T03:54:23;77319.75;;;-147.06;72.95
54453;BME280;40363;52.270;10.546;2023-05-20T03:56:50;77315.63;;;-147.06;73.55
54453;BME280;40363;52.270;10.546;2023-05-20T03:59:18;77327.97;;;-147.06;73.55
54453;BME280;40363;52.270;10.546;2023-05-20T04:01:46;77332.09;;;-147.06;73.63
54453;BME280;40363;52.270;10.546;2023-05-20T04:04:13;77338.25;;;-147.06;73.52
54453;BME280;40363;52.270;10.546;2023-05-20T04:06:39;77346.47;;;-147.06;73.76
54453;BME280;40363;52.270;10.546;2023-05-20T04:09:06;77342.38;;;-147.06;73.55
54453;BME280;40363;52.270;10.546;2023-05-20T04:11:32;77346.47;;;-147.06;73.57
54453;BME280;40363;52.270;10.546;2023-05-20T04:13:59;77356.75;;;-147.06;74.21
54453;BME280;40363;52.270;10.546;2023-05-20T04:16:27;77356.75;;;-147.06;74.37
54453;BME280;40363;52.270;10.546;2023-05-20T04:18:53;77360.88;;;-147.06;73.95
54453;BME280;40363;52.270;10.546;2023-05-20T04:21:20;77364.97;;;-147.06;73.88
54453;BME280;40363;52.270;10.546;2023-05-20T04:23:47;77364.97;;;-147.06;74.08
54453;BME280;40363;52.270;10.546;2023-05-20T04:26:13;77352.66;;;-147.06;74.34
54453;BME280;40363;52.270;10.546;2023-05-20T04:28:40;77383.47;;;-147.06;74.53
54453;BME280;40363;52.270;10.546;2023-05-20T04:31:07;77369.09;;;-147.06;74.20
54453;BME280;40363;52.270;10.546;2023-05-20T04:33:36;77360.88;;;-147.06;74.91
54453;BME280;40363;52.270;10.546;2023-05-20T04:36:03;77373.19;;;-147.06;74.63
54453;BME280;40363;52.270;10.546;2023-05-20T04:38:30;77375.25;;;-147.06;75.17
54453;BME280;40363;52.270;10.546;2023-05-20T04:40:57;77377.31;;;-147.06;75.17
54453;BME280;40363;52.270;10.546;2023-05-20T04:43:23;77379.38;;;-147.06;75.14
54453;BME280;40363;52.270;10.546;2023-05-20T04:45:50;77379.38;;;-147.06;75.60
54453;BME280;40363;52.270;10.546;2023-05-20T04:48:18;77381.44;;;-147.06;75.71
54453;BME280;40363;52.270;10.546;2023-05-20T04:50:46;77381.44;;;-147.06;75.37
54453;BME280;40363;52.270;10.546;2023-05-20T04:53:13;77369.09;;;-147.06;76.15
54453;BME280;40363;52.270;10.546;2023-05-20T04:55:40;77377.31;;;-147.06;76.34
54453;BME280;40363;52.270;10.546;2023-05-20T04:58:07;77354.69;;;-147.06;75.67
54453;BME280;40363;52.270;10.546;2023-05-20T05:00:39;77367.03;;;-147.06;76.07
54453;BME280;40363;52.270;10.546;2023-05-20T05:03:06;77364.97;;;-147.06;76.21
54453;BME280;40363;52.270;10.546;2023-05-20T05:05:33;77358.81;;;-147.06;76.17
54453;BME280;40363;52.270;10.546;2023-05-20T05:08:01;77360.88;;;-147.06;76.94
54453;BME280;40363;52.270;10.546;2023-05-20T05:10:28;77348.53;;;-147.06;76.59
54453;BME280;40363;52.270;10.546;2023-05-20T05:12:54;77352.66;;;-147.06;76.98
54453;BME280;40363;52.270;10.546;2023-05-20T05:15:21;77348.53;;;-147.06;76.77
54453;BME280;40363;52.270;10.546;2023-05-20T05:17:47;77346.47;;;-147.06;76.85
54453;BME280;40363;52.270;10.546;2023-05-20T05:20:14;77348.53;;;-147.06;77.02
54453;BME280;40363;52.270;10.546;2023-05-20T05:22:41;77338.25;;;-147.06;76.52
54453;BME280;40363;52.270;10.546;2023-05-20T05:25:10;77332.09;;;-147.06;76.59
54453;BME280;40363;52.270;10.546;2023-05-20T05:27:36;77321.81;;;-147.06;76.64
54453;BME280;40363;52.270;10.546;2023-05-20T05:30:05;77313.59;;;-147.06;76.42
54453;BME280;40363;52.270;10.546;2023-05-20T05:32:32;77307.41;;;-147.06;77.06
54453;BME280;40363;52.270;10.546;2023-05-20T05:34:59;77311.53;;;-147.06;76.85
54453;BME280;40363;52.270;10.546;2023-05-20T05:37:25;77299.19;;;-147.06;77.01
54453;BME280;40363;52.270;10.546;2023-05-20T05:39:52;77295.06;;;-147.06;77.26
54453;BME280;40363;52.270;10.546;2023-05-20T05:42:20;77284.81;;;-147.06;77.06
54453;BME280;40363;52.270;10.546;2023-05-20T05:44:47;77286.84;;;-147.06;76.93
54453;BME280;40363;52.270;10.546;2023-05-20T05:47:14;77276.56;;;-147.06;76.52
54453;BME280;40363;52.270;10.546;2023-05-20T05:49:40;77278.63;;;-147.06;77.06
54453;BME280;40363;52.270;10.546;2023-05-20T05:52:07;77256.03;;;-147.06;76.89
54453;BME280;40363;52.270;10.546;2023-05-20T05:54:33;77243.69;;;-147.06;76.32
54453;BME280;40363;52.270;10.546;2023-05-20T05:57:00;77227.25;;;-147.06;75.60
54453;BME280;40363;52.270;10.546;2023-05-20T05:59:28;77225.19;;;-147.06;75.29
54453;BME280;40363;52.270;10.546;2023-05-20T06:01:54;77216.97;;;-147.06;75.17
54453;BME280;40363;52.270;10.546;2023-05-20T06:04:21;77206.69;;;-147.06;74.63
54453;BME280;40363;52.270;10.546;2023-05-20T06:06:47;77138.84;;;-147.06;73.34
54453;BME280;40363;52.270;10.546;2023-05-20T06:09:14;77042.22;;;-147.06;70.58
54453;BME280;40363;52.270;10.546;2023-05-20T06:11:41;77007.28;;;-147.06;69.04
54453;BME280;40363;52.270;10.546;2023-05-20T06:14:08;76964.13;;;-147.06;68.09
54453;BME280;40363;52.270;10.546;2023-05-20T06:16:36;76916.84;;;-147.06;66.54
54453;BME280;40363;52.270;10.546;2023-05-20T06:19:03;76840.78;;;-147.06;64.50
54453;BME280;40363;52.270;10.546;2023-05-20T06:21:30;76768.84;;;-147.06;62.68
54453;BME280;40363;52.270;10.546;2023-05-20T06:23:57;76678.41;;;-147.06;60.30
54453;BME280;40363;52.270;10.546;2023-05-20T06:26:23;76614.69;;;-147.06;58.02
54453;BME280;40363;52.270;10.546;2023-05-20T06:28:50;76509.84;;;-147.06;55.67
54453;BME280;40363;52.270;10.546;2023-05-20T06:31:17;76544.78;;;-147.06;55.46
54453;BME280;40363;52.270;10.546;2023-05-20T06:33:45;76462.56;;;-147.06;54.03
54453;BME280;40363;52.270;10.546;2023-05-20T06:36:12;76442.03;;;-147.06;53.37
54453;BME280;40363;52.270;10.546;2023-05-20T06:38:38;76513.97;;;-147.06;54.78
54453;BME280;40363;52.270;10.546;2023-05-20T06:41:05;76637.28;;;-147.06;57.77
54453;BME280;40363;52.270;10.546;2023-05-20T06:43:32;76744.16;;;-147.06;60.81
54453;BME280;40363;52.270;10.546;2023-05-20T06:45:58;76744.16;;;-147.06;61.83
54453;BME280;40363;52.270;10.546;2023-05-20T06:48:25;76779.13;;;-147.06;63.18
54453;BME280;40363;52.270;10.546;2023-05-20T06:50:53;76764.72;;;-147.06;63.43
54453;BME280;40363;52.270;10.546;2023-05-20T06:53:19;76785.28;;;-147.06;63.12
54453;BME280;40363;52.270;10.546;2023-05-20T06:55:46;76830.50;;;-147.06;64.16
54453;BME280;40363;52.270;10.546;2023-05-20T06:58:13;76910.66;;;-147.06;67.13
54453;BME280;40363;52.270;10.546;2023-05-20T07:00:39;76855.16;;;-147.06;66.59
54453;BME280;40363;52.270;10.546;2023-05-20T07:03:06;76849.00;;;-147.06;66.51
54453;BME280;40363;52.270;10.546;2023-05-20T07:05:33;76838.72;;;-147.06;65.92
54453;BME280;40363;52.270;10.546;2023-05-20T07:08:01;76838.72;;;-147.06;66.72
54453;BME280;40363;52.270;10.546;2023-05-20T07:10:28;76838.72;;;-147.06;66.58
54453;BME280;40363;52.270;10.546;2023-05-20T07:12:54;76844.88;;;-147.06;66.88
54453;BME280;40363;52.270;10.546;2023-05-20T07:15:21;76886.00;;;-147.06;68.56
54453;BME280;40363;52.270;10.546;2023-05-20T07:17:47;76892.16;;;-147.06;69.43
54453;BME280;40363;52.270;10.546;2023-05-20T07:20:14;76910.66;;;-147.06;69.64
54453;BME280;40363;52.270;10.546;2023-05-20T07:22:41;76929.16;;;-147.06;71.01
54453;BME280;40363;52.270;10.546;2023-05-20T07:25:09;76929.16;;;-147.06;70.77
54453;BME280;40363;52.270;10.546;2023-05-20T07:27:36;76923.00;;;-147.06;71.85
54453;BME280;40363;52.270;10.546;2023-05-20T07:30:03;76962.06;;;-147.06;71.35
54453;BME280;40363;52.270;10.546;2023-05-20T07:32:30;76978.50;;;-147.06;72.25
54453;BME280;40363;52.270;10.546;2023-05-20T07:34:56;76980.56;;;-147.06;73.32
54453;BME280;40363;52.270;10.546;2023-05-20T07:37:23;76962.06;;;-147.06;72.73
54453;BME280;40363;52.270;10.546;2023-05-20T07:39:49;76966.16;;;-147.06;73.59
54453;BME280;40363;52.270;10.546;2023-05-20T07:42:17;76978.50;;;-147.06;74.01
54453;BME280;40363;52.270;10.546;2023-05-20T07:44:44;77011.38;;;-147.06;75.02
54453;BME280;40363;52.270;10.546;2023-05-20T07:47:11;76980.56;;;-147.06;73.83
54453;BME280;40363;52.270;10.546;2023-05-20T07:49:38;76986.72;;;-147.06;74.39
54453;BME280;40363;52.270;10.546;2023-05-20T07:52:05;76966.16;;;-147.06;74.32
54453;BME280;40363;52.270;10.546;2023-05-20T07:54:33;76968.22;;;-147.06;74.50
54453;BME280;40363;52.270;10.546;2023-05-20T07:57:00;76939.44;;;-147.06;73.47
54453;BME280;40363;52.270;10.546;2023-05-20T07:59:28;76949.72;;;-147.06;73.19
54453;BME280;40363;52.270;10.546;2023-05-20T08:01:55;76960.00;;;-147.06;73.65
54453;BME280;40363;52.270;10.546;2023-05-20T08:04:21;76960.00;;;-147.06;73.23
54453;BME280;40363;52.270;10.546;2023-05-20T08:06:48;76970.28;;;-147.06;73.42
54453;BME280;40363;52.270;10.546;2023-05-20T08:09:15;76945.63;;;-147.06;72.64
54453;BME280;40363;52.270;10.546;2023-05-20T08:11:41;76920.94;;;-147.06;72.50
54453;BME280;40363;52.270;10.546;2023-05-20T08:14:08;76908.63;;;-147.06;71.71
54453;BME280;40363;52.270;10.546;2023-05-20T08:16:36;76892.16;;;-147.06;70.72
54453;BME280;40363;52.270;10.546;2023-05-20T08:19:02;76853.13;;;-147.06;69.41
54453;BME280;40363;52.270;10.546;2023-05-20T08:21:29;76822.28;;;-147.06;68.36
54453;BME280;40363;52.270;10.546;2023-05-20T08:23:56;76842.84;;;-147.06;68.86
54453;BME280;40363;52.270;10.546;2023-05-20T08:26:22;76805.84;;;-147.06;67.08
54453;BME280;40363;52.270;10.546;2023-05-20T08:28:49;76760.63;;;-147.06;67.11
54453;BME280;40363;52.270;10.546;2023-05-20T08:31:15;76731.84;;;-147.06;65.38
54453;BME280;40363;52.270;10.546;2023-05-20T08:33:44;76740.06;;;-147.06;66.27
54453;BME280;40363;52.270;10.546;2023-05-20T08:36:10;76713.34;;;-147.06;65.16
54453;BME280;40363;52.270;10.546;2023-05-20T08:38:37;76756.50;;;-147.06;66.49
54453;BME280;40363;52.270;10.546;2023-05-20T08:41:03;76744.16;;;-147.06;66.01
54453;BME280;40363;52.270;10.546;2023-05-20T08:43:30;76735.94;;;-147.06;64.79
54453;BME280;40363;52.270;10.546;2023-05-20T08:45:57;76738.00;;;-147.06;65.61
54453;BME280;40363;52.270;10.546;2023-05-20T08:48:25;76639.34;;;-147.06;63.46
54453;BME280;40363;52.270;10.546;2023-05-20T08:50:55;76622.91;;;-147.06;62.07
54453;BME280;40363;52.270;10.546;2023-05-20T08:53:23;76649.63;;;-147.06;62.60
54453;BME280;40363;52.270;10.546;2023-05-20T08:55:52;76649.63;;;-147.06;62.64
54453;BME280;40363;52.270;10.546;2023-05-20T08:58:20;76666.06;;;-147.06;62.93
54453;BME280;40363;52.270;10.546;2023-05-20T09:00:47;76633.16;;;-147.06;62.23
54453;BME280;40363;52.270;10.546;2023-05-20T09:03:14;76653.72;;;-147.06;63.42
54453;BME280;40363;52.270;10.546;2023-05-20T09:05:40;76664.00;;;-147.06;63.35
54453;BME280;40363;52.270;10.546;2023-05-20T09:08:09;76639.34;;;-147.06;63.09
54453;BME280;40363;52.270;10.546;2023-05-20T09:10:37;76649.63;;;-147.06;63.64
54453;BME280;40363;52.270;10.546;2023-05-20T09:13:06;76692.78;;;-147.06;64.93
54453;BME280;40363;52.270;10.546;2023-05-20T09:15:33;76725.66;;;-147.06;65.51
54453;BME280;40363;52.270;10.546;2023-05-20T09:18:01;76727.72;;;-147.06;65.25
54453;BME280;40363;52.270;10.546;2023-05-20T09:20:28;76668.13;;;-147.06;64.45
54453;BME280;40363;52.270;10.546;2023-05-20T09:22:58;76622.91;;;-147.06;63.99
54453;BME280;40363;52.270;10.546;2023-05-20T09:25:27;76635.22;;;-147.06;62.81
54453;BME280;40363;52.270;10.546;2023-05-20T09:27:54;76573.56;;;-147.06;61.28
54453;BME280;40363;52.270;10.546;2023-05-20T09:30:21;76563.28;;;-147.06;61.47
54453;BME280;40363;52.270;10.546;2023-05-20T09:32:52;76587.94;;;-147.06;62.09
54453;BME280;40363;52.270;10.546;2023-05-20T09:35:19;76594.13;;;-147.06;62.00
54453;BME280;40363;52.270;10.546;2023-05-20T09:37:46;76629.06;;;-147.06;62.82
54453;BME280;40363;52.270;10.546;2023-05-20T09:40:14;76624.94;;;-147.06;63.89
54453;BME280;40363;52.270;10.546;2023-05-20T09:42:48;76577.69;;;-147.06;62.17
54453;BME280;40363;52.270;10.546;2023-05-20T09:45:15;76561.22;;;-147.06;61.37
54453;BME280;40363;52.270;10.546;2023-05-20T09:47:43;76573.56;;;-147.06;60.56
54453;BME280;40363;52.270;10.546;2023-05-20T09:50:11;76633.16;;;-147.06;62.32
54453;BME280;40363;52.270;10.546;2023-05-20T09:52:39;76657.84;;;-147.06;64.25
54453;BME280;40363;52.270;10.546;2023-05-20T09:55:07;76664.00;;;-147.06;63.87
54453;BME280;40363;52.270;10.546;2023-05-20T09:57:35;76649.63;;;-147.06;64.09
54453;BME280;40363;52.270;10.546;2023-05-20T10:00:05;76651.66;;;-147.06;63.39
54453;BME280;40363;52.270;10.546;2023-05-20T10:02:34;76657.84;;;-147.06;63.60
54453;BME280;40363;52.270;10.546;2023-05-20T10:05:05;76678.41;;;-147.06;64.75
54453;BME280;40363;52.270;10.546;2023-05-20T10:07:52;76670.16;;;-147.06;64.42
54453;BME280;40363;52.270;10.546;2023-05-20T10:10:28;76657.84;;;-147.06;64.92
54453;BME280;40363;52.270;10.546;2023-05-20T10:13:15;76674.28;;;-147.06;64.40
54453;BME280;40363;52.270;10.546;2023-05-20T10:15:54;76612.63;;;-147.06;62.70
54453;BME280;40363;52.270;10.546;2023-05-20T10:18:33;76608.50;;;-147.06;64.09
54453;BME280;40363;52.270;10.546;2023-05-20T10:21:02;76666.06;;;-147.06;64.18
54453;BME280;40363;52.270;10.546;2023-05-20T10:23:29;76661.94;;;-147.06;64.80
54453;BME280;40363;52.270;10.546;2023-05-20T10:25:57;76633.16;;;-147.06;63.29
54453;BME280;40363;52.270;10.546;2023-05-20T10:28:27;76616.72;;;-147.06;63.07
54453;BME280;40363;52.270;10.546;2023-05-20T10:30:56;76594.13;;;-147.06;63.91
54453;BME280;40363;52.270;10.546;2023-05-20T10:33:24;76596.19;;;-147.06;64.06
54453;BME280;40363;52.270;10.546;2023-05-20T10:35:51;76581.78;;;-147.06;62.58
54453;BME280;40363;52.270;10.546;2023-05-20T10:38:19;76590.00;;;-147.06;62.77
54453;BME280;40363;52.270;10.546;2023-05-20T10:40:46;76604.41;;;-147.06;62.13
54453;BME280;40363;52.270;10.546;2023-05-20T10:43:14;76604.41;;;-147.06;63.17
54453;BME280;40363;52.270;10.546;2023-05-20T10:45:48;76608.50;;;-147.06;63.51
54453;BME280;40363;52.270;10.546;2023-05-20T10:48:27;76600.28;;;-147.06;64.28
54453;BME280;40363;52.270;10.546;2023-05-20T10:50:55;76616.72;;;-147.06;63.57
54453;BME280;40363;52.270;10.546;2023-05-20T10:53:23;76579.72;;;-147.06;63.88
54453;BME280;40363;52.270;10.546;2023-05-20T10:55:51;76571.50;;;-147.06;63.26
54453;BME280;40363;52.270;10.546;2023-05-20T10:58:20;76534.50;;;-147.06;61.93
54453;BME280;40363;52.270;10.546;2023-05-20T11:00:47;76546.84;;;-147.06;62.22
54453;BME280;40363;52.270;10.546;2023-05-20T11:03:15;76542.72;;;-147.06;62.50
54453;BME280;40363;52.270;10.546;2023-05-20T11:05:45;76571.50;;;-147.06;62.53
54453;BME280;40363;52.270;10.546;2023-05-20T11:08:12;76524.22;;;-147.06;63.07
54453;BME280;40363;52.270;10.546;2023-05-20T11:10:41;76536.56;;;-147.06;63.17
54453;BME280;40363;52.270;10.546;2023-05-20T11:13:11;76518.06;;;-147.06;61.03
54453;BME280;40363;52.270;10.546;2023-05-20T11:15:38;76524.22;;;-147.06;61.87
54453;BME280;40363;52.270;10.546;2023-05-20T11:18:05;76550.97;;;-147.06;62.28
54453;BME280;40363;52.270;10.546;2023-05-20T11:20:32;76501.63;;;-147.06;62.00
54453;BME280;40363;52.270;10.546;2023-05-20T11:23:01;76522.19;;;-147.06;61.93
54453;BME280;40363;52.270;10.546;2023-05-20T11:25:28;76505.75;;;-147.06;61.22
54453;BME280;40363;52.270;10.546;2023-05-20T11:27:54;76509.84;;;-147.06;61.23
54453;BME280;40363;52.270;10.546;2023-05-20T11:30:22;76518.06;;;-147.06;61.41
54453;BME280;40363;52.270;10.546;2023-05-20T11:32:56;76509.84;;;-147.06;61.57
54453;BME280;40363;52.270;10.546;2023-05-20T11:35:23;76499.56;;;-147.06;61.68
54453;BME280;40363;52.270;10.546;2023-05-20T11:37:57;76513.97;;;-147.06;63.75
54453;BME280;40363;52.270;10.546;2023-05-20T11:40:28;76509.84;;;-147.06;62.68
54453;BME280;40363;52.270;10.546;2023-05-20T11:42:57;76534.50;;;-147.06;62.43
54453;BME280;40363;52.270;10.546;2023-05-20T11:45:24;76501.63;;;-147.06;62.42
54453;BME280;40363;52.270;10.546;2023-05-20T11:48:01;76450.25;;;-147.06;62.00
54453;BME280;40363;52.270;10.546;2023-05-20T11:50:28;76444.06;;;-147.06;61.41
54453;BME280;40363;52.270;10.546;2023-05-20T11:52:59;76470.78;;;-147.06;62.33
54453;BME280;40363;52.270;10.546;2023-05-20T11:55:27;76460.53;;;-147.06;61.94
54453;BME280;40363;52.270;10.546;2023-05-20T11:57:54;76495.47;;;-147.06;62.36
54453;BME280;40363;52.270;10.546;2023-05-20T12:00:22;76487.25;;;-147.06;61.56
54453;BME280;40363;52.270;10.546;2023-05-20T12:02:49;76509.84;;;-147.06;61.61
54453;BME280;40363;52.270;10.546;2023-05-20T12:05:15;76487.25;;;-147.06;61.98
54453;BME280;40363;52.270;10.546;2023-05-20T12:07:42;76470.78;;;-147.06;61.68
54453;BME280;40363;52.270;10.546;2023-05-20T12:10:09;76481.06;;;-147.06;61.55
54453;BME280;40363;52.270;10.546;2023-05-20T12:12:39;76433.78;;;-147.06;60.85
54453;BME280;40363;52.270;10.546;2023-05-20T12:15:06;76437.91;;;-147.06;61.59
54453;BME280;40363;52.270;10.546;2023-05-20T12:17:45;76450.25;;;-147.06;62.84
54453;BME280;40363;52.270;10.546;2023-05-20T12:20:13;76437.91;;;-147.06;60.69
54453;BME280;40363;52.270;10.546;2023-05-20T12:22:40;76452.28;;;-147.06;61.07
54453;BME280;40363;52.270;10.546;2023-05-20T12:25:07;76452.28;;;-147.06;61.94
54453;BME280;40363;52.270;10.546;2023-05-20T12:27:34;76448.19;;;-147.06;60.91
54453;BME280;40363;52.270;10.546;2023-05-20T12:30:02;76442.03;;;-147.06;60.73
54453;BME280;40363;52.270;10.546;2023-05-20T12:32:29;76462.56;;;-147.06;60.87